Time;durP1;ratioP1;P1;durP2;ratioP2;P2;SDS_P1;SDS_P2;PMS_P1;PMS_P2;Temp;Humidity;BMP_temperature;BMP_pressure;BME280_temperature;BME280_humidity;BME280_pressure;Samples;Min_cycle;Max_cycle;Signal;HPM_P1;HPM_P2
2022/01/23 00:00:38;;;;;;;;;25.00;16.60;;;;;5.90;89.63;101664.22;5130474;27;8864;-63
2022/01/23 00:03:10;;;;;;;;;23.20;19.40;;;;;5.90;89.39;101661.56;5130492;27;8833;-64
2022/01/23 00:05:42;;;;;;;;;10.80;9.20;;;;;5.91;89.51;101657.16;5130195;27;8996;-61
2022/01/23 00:08:10;;;;;;;;;23.00;20.20;;;;;5.91;89.44;101662.44;5130350;27;8883;-61
2022/01/23 00:10:38;;;;;;;;;15.60;15.40;;;;;5.90;89.86;101653.66;5128186;27;8942;-61
2022/01/23 00:13:10;;;;;;;;;18.40;17.00;;;;;5.90;89.25;101650.13;5128195;27;8833;-62
2022/01/23 00:18:23;;;;;;;;;27.00;22.00;;;;;5.89;89.53;101643.13;5107582;28;8850;-63
2022/01/23 00:20:51;;;;;;;;;23.40;21.40;;;;;5.88;89.72;101641.38;5107713;28;8909;-63
2022/01/23 00:23:31;;;;;;;;;21.80;18.40;;;;;5.87;88.94;101637.03;5107622;28;8863;-63
2022/01/23 00:31:30;;;;;;;;;20.20;19.00;;;;;5.84;89.25;101651.19;5108654;28;8878;-61
2022/01/23 00:33:59;;;;;;;;;19.80;18.40;;;;;5.84;89.66;101651.19;5107620;28;9789;-63
2022/01/23 00:36:27;;;;;;;;;16.40;15.40;;;;;5.84;89.39;101645.91;5108448;28;9516;-63
2022/01/23 00:38:55;;;;;;;;;21.20;18.80;;;;;5.84;89.51;101651.19;5109702;28;8840;-63
2022/01/23 00:41:22;;;;;;;;;15.20;13.40;;;;;5.83;89.24;101652.13;5107736;28;8840;-63
2022/01/23 00:43:52;;;;;;;;;16.80;14.20;;;;;5.85;89.72;101652.06;5108781;28;8844;-62
2022/01/23 00:46:32;;;;;;;;;20.00;18.60;;;;;5.84;89.39;101650.34;5116865;27;8838;-63
2022/01/23 00:49:24;;;;;;;;;20.80;17.20;;;;;5.84;89.30;101656.47;5126828;27;8833;-64
2022/01/23 00:51:52;;;;;;;;;11.00;9.80;;;;;5.83;89.17;101653.88;5129114;27;9629;-63
2022/01/23 00:54:20;;;;;;;;;21.80;19.00;;;;;5.84;89.65;101664.41;5128186;27;8838;-63
2022/01/23 00:56:48;;;;;;;;;17.20;12.00;;;;;5.83;89.30;101667.09;5131031;27;8880;-62
2022/01/23 00:59:15;;;;;;;;;18.40;14.60;;;;;5.82;89.43;101647.75;5131809;27;8862;-62
2022/01/23 01:01:43;;;;;;;;;20.60;18.40;;;;;5.80;89.64;101649.59;5131143;27;8873;-63
2022/01/23 01:04:11;;;;;;;;;12.20;11.20;;;;;5.80;89.47;101646.06;5133990;27;9810;-64
2022/01/23 01:06:39;;;;;;;;;12.00;12.00;;;;;5.80;89.36;101654.00;5132362;27;8879;-64
2022/01/23 01:09:08;;;;;;;;;20.60;17.00;;;;;5.78;89.40;101664.56;5132532;27;8834;-64
2022/01/23 01:14:30;;;;;;;;;16.80;16.40;;;;;5.77;89.10;101665.50;5133760;27;8865;-64
2022/01/23 01:17:05;;;;;;;;;15.80;15.80;;;;;5.77;89.44;101664.66;5118363;27;8950;-65
2022/01/23 01:30:55;;;;;;;;;13.40;12.60;;;;;5.70;89.64;101650.75;5113000;28;8846;-64
2022/01/23 01:33:32;;;;;;;;;17.20;15.20;;;;;5.68;89.60;101638.53;5112147;28;8847;-62
2022/01/23 01:36:05;;;;;;;;;13.60;12.00;;;;;5.67;89.50;101642.94;5111441;28;8844;-66
2022/01/23 01:38:33;;;;;;;;;16.00;12.40;;;;;5.66;89.48;101633.28;5112663;28;8836;-64
2022/01/23 01:41:01;;;;;;;;;12.20;10.40;;;;;5.64;89.54;101629.84;5112923;28;8857;-62
2022/01/23 01:43:28;;;;;;;;;14.20;12.00;;;;;5.64;89.57;101632.47;5112209;28;8832;-63
2022/01/23 01:45:56;;;;;;;;;8.40;6.60;;;;;5.64;89.54;101628.94;5117825;27;8927;-62
2022/01/23 01:48:25;;;;;;;;;15.20;12.20;;;;;5.63;89.61;101625.44;5132744;27;8856;-62
2022/01/23 01:50:55;;;;;;;;;19.00;18.60;;;;;5.63;89.71;101619.31;5132432;27;8849;-62
2022/01/23 01:53:22;;;;;;;;;13.00;12.40;;;;;5.62;89.85;101618.44;5133637;27;8846;-64
2022/01/23 01:55:52;;;;;;;;;18.40;17.20;;;;;5.62;89.70;101617.59;5133171;27;8872;-63
2022/01/23 01:58:46;;;;;;;;;10.40;10.40;;;;;5.61;89.69;101624.63;5132606;27;8841;-61
2022/01/23 02:02:44;;;;;;;;;12.00;10.00;;;;;5.61;89.62;101637.00;5132147;27;8842;-61
2022/01/23 02:09:38;;;;;;;;;16.00;12.40;;;;;5.63;89.22;101645.72;5100880;27;8876;-63
2022/01/23 02:12:21;;;;;;;;;10.00;9.80;;;;;5.61;89.56;101643.13;5132531;27;8833;-64
2022/01/23 02:15:11;;;;;;;;;15.60;12.60;;;;;5.61;89.69;101645.75;5133688;27;8849;-61
2022/01/23 02:17:55;;;;;;;;;18.00;15.80;;;;;5.62;89.63;101644.00;5112475;28;8855;-63
2022/01/23 02:23:26;;;;;;;;;15.20;14.20;;;;;5.62;89.49;101638.72;5112532;28;8874;-62
2022/01/23 02:50:51;;;;;;;;;23.40;22.20;;;;;5.62;89.61;101646.66;5132115;27;8870;-64
2022/01/23 02:53:51;;;;;;;;;11.00;7.20;;;;;5.61;89.29;101644.91;5130857;27;8839;-63
2022/01/23 02:56:22;;;;;;;;;19.60;18.00;;;;;5.61;89.53;101642.28;5131423;27;8852;-62
2022/01/23 02:58:58;;;;;;;;;15.80;12.40;;;;;5.61;90.05;101644.91;5129411;27;8910;-63
2022/01/23 03:01:29;;;;;;;;;19.60;16.40;;;;;5.61;89.41;101644.91;5131606;27;8842;-64
2022/01/23 03:04:02;;;;;;;;;15.60;12.00;;;;;5.61;89.56;101643.13;5131437;27;8846;-64
2022/01/23 03:06:54;;;;;;;;;8.80;6.80;;;;;5.60;89.20;101648.44;5130352;27;8842;-64
2022/01/23 03:15:22;;;;;;;;;7.40;7.00;;;;;5.58;89.79;101650.28;5102127;27;9117;-61
2022/01/23 03:26:25;;;;;;;;;11.80;11.00;;;;;5.55;89.77;101660.97;5111019;28;9016;-62
2022/01/23 03:29:16;;;;;;;;;12.40;10.80;;;;;5.53;89.28;101658.34;5110803;28;8860;-64
2022/01/23 03:31:58;;;;;;;;;11.20;10.40;;;;;5.52;89.63;101666.31;5110727;28;8839;-63
2022/01/23 03:34:27;;;;;;;;;8.40;8.40;;;;;5.52;89.66;101663.69;5111416;28;8936;-63
2022/01/23 03:36:58;;;;;;;;;7.20;6.20;;;;;5.52;89.74;101658.41;5110293;28;8852;-64
2022/01/23 03:39:25;;;;;;;;;10.80;9.40;;;;;5.51;89.50;101654.03;5110362;28;8962;-63
2022/01/23 03:41:53;;;;;;;;;7.00;6.20;;;;;5.50;89.89;101655.81;5109822;28;8839;-64
2022/01/23 03:44:22;;;;;;;;;12.00;9.40;;;;;5.49;89.28;101663.78;5110168;28;8864;-62
2022/01/23 03:47:12;;;;;;;;;8.20;7.00;;;;;5.48;89.69;101668.19;5091211;28;8835;-64
2022/01/23 03:49:38;;;;;;;;;10.20;8.20;;;;;5.48;89.76;101670.84;5109101;28;8873;-63
2022/01/23 03:52:06;;;;;;;;;12.20;12.20;;;;;5.49;90.15;101674.34;5108531;28;8867;-63
2022/01/23 03:54:34;;;;;;;;;12.00;9.80;;;;;5.48;89.71;101670.84;5108073;28;8856;-61
2022/01/23 03:57:02;;;;;;;;;16.00;13.40;;;;;5.49;90.20;101677.00;5108770;28;9547;-61
2022/01/23 03:59:30;;;;;;;;;8.40;7.20;;;;;5.49;89.59;101671.72;5108775;28;8961;-63
2022/01/23 04:01:58;;;;;;;;;9.80;8.20;;;;;5.50;89.83;101676.09;5110403;28;9536;-62
2022/01/23 04:07:15;;;;;;;;;6.20;5.20;;;;;5.53;89.67;101673.38;5103179;28;8861;-62
2022/01/23 04:09:44;;;;;;;;;12.80;12.00;;;;;5.56;89.49;101681.19;5109032;28;8932;-62
2022/01/23 04:12:23;;;;;;;;;14.60;12.00;;;;;5.56;89.45;101675.91;5108280;28;8854;-65
2022/01/23 04:14:57;;;;;;;;;11.20;7.40;;;;;5.56;89.61;101674.09;5109033;28;8870;-62
2022/01/23 04:33:55;;;;;;;;;12.00;9.60;;;;;5.44;89.73;101666.56;5128642;27;8868;-61
2022/01/23 05:01:24;;;;;;;;;13.40;12.80;;;;;5.44;89.92;101676.25;5109704;28;8840;-63
2022/01/23 05:06:44;;;;;;;;;17.00;12.40;;;;;5.45;89.84;101670.06;5106967;28;8835;-60
2022/01/23 05:09:12;;;;;;;;;9.60;7.80;;;;;5.44;89.86;101686.84;5109144;28;8915;-61
2022/01/23 05:11:46;;;;;;;;;10.20;9.40;;;;;5.44;89.47;101674.50;5109523;28;8882;-62
2022/01/23 05:14:15;;;;;;;;;10.00;9.40;;;;;5.43;89.50;101677.19;5107627;28;8866;-63
2022/01/23 05:16:43;;;;;;;;;9.20;7.40;;;;;5.43;89.86;101679.81;5123781;27;8849;-62
2022/01/23 05:19:11;;;;;;;;;16.00;13.40;;;;;5.43;89.94;101682.47;5126877;27;8845;-65
2022/01/23 05:22:05;;;;;;;;;11.20;10.00;;;;;5.43;89.65;101678.06;5128515;27;8941;-61
2022/01/23 05:24:37;;;;;;;;;9.00;8.20;;;;;5.42;89.85;101678.97;5129697;27;8875;-61
2022/01/23 05:27:05;;;;;;;;;15.80;12.20;;;;;5.42;89.98;101694.81;5129360;27;8830;-61
2022/01/23 05:29:33;;;;;;;;;8.60;5.60;;;;;5.42;89.52;101688.66;5128438;27;8854;-61
2022/01/23 05:32:01;;;;;;;;;11.00;9.80;;;;;5.43;89.52;101687.75;5128629;27;8858;-61
2022/01/23 05:34:28;;;;;;;;;12.40;12.00;;;;;5.44;89.65;101676.25;5129030;27;9214;-63
2022/01/23 05:36:57;;;;;;;;;10.80;10.40;;;;;5.45;89.88;101691.19;5128769;27;8873;-61
2022/01/23 05:39:27;;;;;;;;;17.80;13.00;;;;;5.45;89.72;101701.75;5129630;27;9863;-64
2022/01/23 05:41:59;;;;;;;;;13.00;12.40;;;;;5.45;89.55;101702.63;5130666;27;8834;-62
2022/01/23 05:44:26;;;;;;;;;8.00;6.60;;;;;5.47;89.53;101705.25;5132879;27;9510;-61
2022/01/23 05:46:54;;;;;;;;;12.60;12.40;;;;;5.47;89.68;101708.72;5113526;27;8831;-61
2022/01/23 05:49:22;;;;;;;;;14.60;9.80;;;;;5.49;89.75;101706.06;5111390;28;8847;-61
2022/01/23 05:51:50;;;;;;;;;15.80;13.80;;;;;5.48;89.83;101699.03;5111711;28;8844;-63
2022/01/23 05:54:17;;;;;;;;;6.80;6.00;;;;;5.49;89.45;101711.34;5112367;28;8839;-63
2022/01/23 05:56:46;;;;;;;;;9.80;8.60;;;;;5.49;89.94;101700.78;5111262;28;8986;-61
2022/01/23 05:59:16;;;;;;;;;9.00;8.20;;;;;5.49;89.61;101716.63;5111046;28;9507;-61
2022/01/23 06:01:44;;;;;;;;;12.00;9.80;;;;;5.49;89.56;101711.34;5111856;28;8878;-64
2022/01/23 06:04:11;;;;;;;;;6.40;6.40;;;;;5.49;89.39;101719.25;5112128;28;8901;-61
2022/01/23 06:06:39;;;;;;;;;16.40;12.20;;;;;5.48;90.07;101720.19;5123050;27;8948;-62
2022/01/23 06:09:07;;;;;;;;;4.40;4.40;;;;;5.47;89.36;101721.09;5130228;27;8983;-63
2022/01/23 06:11:35;;;;;;;;;15.60;14.20;;;;;5.47;89.57;101708.72;5130391;27;8841;-63
2022/01/23 06:14:02;;;;;;;;;9.40;6.60;;;;;5.48;89.71;101709.63;5130218;27;8862;-63
2022/01/23 06:16:31;;;;;;;;;11.00;10.40;;;;;5.47;89.69;101707.88;5132231;27;8930;-62
2022/01/23 06:18:58;;;;;;;;;10.00;9.40;;;;;5.47;89.13;101710.53;5130843;27;8849;-61
2022/01/23 06:21:26;;;;;;;;;7.00;6.00;;;;;5.46;89.40;101712.28;5131330;27;8842;-61
2022/01/23 06:24:02;;;;;;;;;12.00;11.00;;;;;5.48;89.15;101707.81;5131922;27;8956;-63
2022/01/23 06:26:30;;;;;;;;;8.20;7.20;;;;;5.49;89.78;101713.97;5131198;27;8871;-62
2022/01/23 06:28:58;;;;;;;;;12.80;9.80;;;;;5.50;90.06;101703.38;5131051;27;8865;-62
2022/01/23 06:31:26;;;;;;;;;3.80;2.60;;;;;5.50;89.78;101710.41;5130799;27;8850;-63
2022/01/23 06:33:53;;;;;;;;;11.20;7.60;;;;;5.50;90.13;101710.41;5130933;27;8868;-62
2022/01/23 06:36:21;;;;;;;;;10.60;10.40;;;;;5.50;89.54;101711.31;5120657;27;8858;-61
2022/01/23 06:38:49;;;;;;;;;6.60;6.00;;;;;5.52;89.08;101705.94;5110042;28;8832;-61
2022/01/23 06:41:17;;;;;;;;;9.80;9.40;;;;;5.52;89.48;101706.81;5110747;28;8862;-63
2022/01/23 06:43:45;;;;;;;;;8.20;7.40;;;;;5.53;89.70;101713.00;5109986;28;9512;-64
2022/01/23 06:46:14;;;;;;;;;14.00;9.00;;;;;5.54;89.39;101709.44;5109732;28;8831;-63
2022/01/23 06:48:42;;;;;;;;;12.00;9.40;;;;;5.55;89.84;101716.44;5110269;28;8836;-61
2022/01/23 06:51:09;;;;;;;;;9.20;6.60;;;;;5.54;89.39;101717.34;5108760;28;8916;-62
2022/01/23 06:53:37;;;;;;;;;13.60;12.00;;;;;5.55;89.56;101722.56;5108735;28;8966;-63
2022/01/23 06:56:05;;;;;;;;;9.80;9.20;;;;;5.54;89.06;101720.84;5109436;28;8835;-61
2022/01/23 06:58:33;;;;;;;;;14.40;11.60;;;;;5.54;89.47;101720.00;5108286;28;8886;-61
2022/01/23 07:01:00;;;;;;;;;5.20;4.00;;;;;5.54;89.42;101727.94;5109276;28;8836;-63
2022/01/23 07:03:29;;;;;;;;;13.20;10.20;;;;;5.53;89.43;101719.13;5108723;28;8863;-63
2022/01/23 07:05:56;;;;;;;;;12.00;10.00;;;;;5.53;89.56;101716.47;5115251;27;8981;-62
2022/01/23 07:08:24;;;;;;;;;11.20;10.80;;;;;5.54;89.02;101725.28;5129416;27;8834;-62
2022/01/23 07:10:52;;;;;;;;;7.00;6.40;;;;;5.54;89.50;101726.13;5129514;27;8833;-65
2022/01/23 07:13:19;;;;;;;;;12.60;9.80;;;;;5.56;89.22;101726.09;5131558;27;8842;-62
2022/01/23 07:15:48;;;;;;;;;7.80;7.60;;;;;5.54;89.13;101735.84;5130556;27;9843;-63
2022/01/23 07:18:16;;;;;;;;;6.00;4.40;;;;;5.55;89.23;101734.94;5129425;27;8830;-61
2022/01/23 07:20:44;;;;;;;;;8.00;6.80;;;;;5.57;89.60;101741.03;5129501;27;8960;-62
2022/01/23 07:23:11;;;;;;;;;8.00;5.60;;;;;5.57;89.41;101743.66;5128567;27;9514;-63
2022/01/23 07:25:41;;;;;;;;;7.00;6.80;;;;;5.57;89.62;101755.13;5129402;27;8833;-63
2022/01/23 07:28:12;;;;;;;;;9.60;6.20;;;;;5.58;89.37;101758.59;5127144;27;8951;-62
2022/01/23 07:30:46;;;;;;;;;11.80;10.80;;;;;5.58;89.38;101759.47;5128327;27;8837;-63
2022/01/23 07:33:14;;;;;;;;;8.00;5.60;;;;;5.60;89.26;101762.06;5128497;27;9513;-63
2022/01/23 07:35:42;;;;;;;;;9.60;9.20;;;;;5.61;89.36;101763.81;5125975;27;8968;-63
2022/01/23 07:38:11;;;;;;;;;12.20;9.00;;;;;5.62;89.45;101774.31;5107980;28;9788;-63
2022/01/23 07:40:38;;;;;;;;;12.20;11.20;;;;;5.62;89.73;101762.91;5109486;28;8840;-63
2022/01/23 07:43:06;;;;;;;;;5.60;5.60;;;;;5.61;89.52;101764.66;5109917;28;8858;-63
2022/01/23 07:45:34;;;;;;;;;12.60;11.60;;;;;5.61;89.34;101758.53;5110051;28;8886;-63
2022/01/23 07:48:01;;;;;;;;;6.60;3.40;;;;;5.61;89.27;101763.81;5108741;28;8862;-63
2022/01/23 07:50:29;;;;;;;;;9.00;7.00;;;;;5.60;89.21;101770.88;5108506;28;8919;-63
2022/01/23 07:52:57;;;;;;;;;6.80;6.00;;;;;5.60;89.43;101772.63;5108903;28;8855;-61
2022/01/23 07:55:25;;;;;;;;;11.60;10.20;;;;;5.61;89.13;101775.22;5108508;28;9524;-63
2022/01/23 07:57:53;;;;;;;;;11.20;8.60;;;;;5.62;89.29;101770.84;5109661;28;9531;-63
2022/01/23 08:00:22;;;;;;;;;9.40;9.00;;;;;5.62;89.28;101774.31;5107837;28;8859;-64
2022/01/23 08:02:49;;;;;;;;;9.80;9.00;;;;;5.63;89.78;101778.69;5107049;28;8860;-63
2022/01/23 08:05:17;;;;;;;;;12.20;12.00;;;;;5.64;89.47;101776.94;5108413;27;8962;-63
2022/01/23 08:07:45;;;;;;;;;10.00;8.00;;;;;5.65;89.38;101776.00;5128604;27;9008;-63
2022/01/23 08:10:14;;;;;;;;;8.60;6.60;;;;;5.67;89.52;101779.47;5127043;27;8944;-62
2022/01/23 08:12:41;;;;;;;;;10.40;9.60;;;;;5.68;89.24;101773.28;5129420;27;9709;-63
2022/01/23 08:15:09;;;;;;;;;15.80;13.00;;;;;5.68;89.38;101771.50;5128783;27;8846;-63
2022/01/23 08:17:37;;;;;;;;;11.60;10.40;;;;;5.70;89.08;101782.88;5129351;27;8996;-61
2022/01/23 08:20:06;;;;;;;;;16.00;13.00;;;;;5.72;89.12;101786.38;5128362;27;8880;-61
2022/01/23 08:22:33;;;;;;;;;7.40;6.00;;;;;5.74;89.31;101796.88;5127985;27;8846;-62
2022/01/23 08:25:02;;;;;;;;;6.60;6.60;;;;;5.75;88.97;101799.47;5128126;27;8987;-61
2022/01/23 08:27:30;;;;;;;;;10.40;10.00;;;;;5.77;88.75;101792.34;5128436;27;8860;-63
2022/01/23 08:29:58;;;;;;;;;12.00;9.20;;;;;5.80;89.02;101791.44;5126940;27;8846;-63
2022/01/23 08:32:26;;;;;;;;;15.60;12.60;;;;;5.83;89.47;101789.56;5126980;27;8959;-63
2022/01/23 08:34:53;;;;;;;;;10.40;10.00;;;;;5.87;89.22;101787.69;5125353;27;8845;-63
2022/01/23 08:37:21;;;;;;;;;14.20;13.00;;;;;5.90;88.90;101785.81;5108382;28;8882;-63
2022/01/23 08:39:49;;;;;;;;;6.00;6.00;;;;;5.93;88.90;101790.16;5106063;28;8840;-69
2022/01/23 08:42:17;;;;;;;;;13.00;10.60;;;;;5.96;88.79;101793.56;5106826;28;8869;-62
2022/01/23 08:44:44;;;;;;;;;14.20;11.60;;;;;5.99;89.04;101795.25;5105985;28;8996;-60
2022/01/23 08:47:15;;;;;;;;;8.80;8.80;;;;;6.03;88.57;101794.22;5106411;28;8921;-64
2022/01/23 08:49:46;;;;;;;;;10.40;9.80;;;;;6.04;88.68;101801.25;5105904;28;8924;-64
2022/01/23 08:52:16;;;;;;;;;13.40;10.40;;;;;6.05;88.49;101802.97;5106411;28;9001;-63
2022/01/23 08:55:04;;;;;;;;;0.60;0.60;;;;;6.06;89.06;101791.50;5106531;28;8862;-62
2022/01/23 08:57:32;;;;;;;;;11.80;10.00;;;;;6.09;89.00;101799.31;5107483;28;8851;-62
2022/01/23 09:00:21;;;;;;;;;9.00;7.60;;;;;6.12;88.75;101794.81;5106696;28;8879;-63
2022/01/23 09:02:49;;;;;;;;;10.80;9.00;;;;;6.18;88.79;101801.69;5107099;28;8832;-62
2022/01/23 09:05:18;;;;;;;;;9.60;8.20;;;;;6.21;88.65;101804.25;5106409;27;8946;-63
2022/01/23 09:07:47;;;;;;;;;14.40;11.20;;;;;6.24;88.27;101806.78;5125031;27;8949;-63
2022/01/23 09:10:15;;;;;;;;;9.80;9.40;;;;;6.27;88.61;101806.66;5127256;27;8841;-63
2022/01/23 09:12:56;;;;;;;;;10.80;9.60;;;;;6.28;88.60;101806.63;5127349;27;8834;-63
2022/01/23 09:15:24;;;;;;;;;15.20;12.20;;;;;6.29;88.61;101810.16;5127611;27;8854;-63
2022/01/23 09:17:52;;;;;;;;;11.40;10.00;;;;;6.27;88.36;101807.53;5129905;27;8848;-63
2022/01/23 09:20:19;;;;;;;;;8.40;7.00;;;;;6.28;88.38;101806.63;5132076;27;8845;-63
2022/01/23 09:22:47;;;;;;;;;12.80;12.20;;;;;6.28;88.74;101803.09;5132178;27;8841;-63
2022/01/23 09:25:16;;;;;;;;;4.80;3.60;;;;;6.29;88.03;101812.78;5131181;27;8865;-62
2022/01/23 09:27:45;;;;;;;;;14.20;11.20;;;;;6.30;88.25;101822.44;5130265;27;8838;-62
2022/01/23 09:30:17;;;;;;;;;12.00;10.80;;;;;6.30;88.54;101818.00;5131126;27;8991;-62
2022/01/23 09:32:45;;;;;;;;;10.40;8.60;;;;;6.30;88.44;101820.66;5131735;27;8991;-63
2022/01/23 09:35:12;;;;;;;;;13.00;10.80;;;;;6.33;88.76;101825.88;5129986;27;8837;-63
2022/01/23 09:37:41;;;;;;;;;13.80;13.60;;;;;6.33;88.73;101817.94;5111430;28;8916;-66
2022/01/23 09:40:09;;;;;;;;;13.20;11.80;;;;;6.36;88.54;101825.75;5110908;28;8882;-63
2022/01/23 09:42:37;;;;;;;;;9.40;9.00;;;;;6.40;88.35;101823.88;5111388;28;8883;-63
2022/01/23 09:45:05;;;;;;;;;10.00;10.00;;;;;6.44;88.46;101830.81;5112367;28;8866;-61
2022/01/23 09:47:33;;;;;;;;;12.40;10.80;;;;;6.46;88.45;101828.97;5110722;28;8831;-63
2022/01/23 09:50:03;;;;;;;;;7.20;6.60;;;;;6.49;88.53;101835.03;5110316;28;8859;-63
2022/01/23 09:52:33;;;;;;;;;10.00;9.00;;;;;6.52;88.72;101831.44;5110655;28;8851;-63
2022/01/23 09:55:07;;;;;;;;;18.00;16.20;;;;;6.56;88.30;101838.34;5111039;28;8840;-61
2022/01/23 09:57:35;;;;;;;;;10.80;10.20;;;;;6.59;88.71;101833.81;5111281;28;8864;-60
2022/01/23 10:00:02;;;;;;;;;12.60;10.40;;;;;6.61;88.22;101836.41;5111716;28;8864;-63
2022/01/23 10:02:31;;;;;;;;;11.20;11.20;;;;;6.67;88.36;101841.50;5110712;28;8898;-62
2022/01/23 10:05:01;;;;;;;;;15.80;12.80;;;;;6.70;87.87;101844.03;5112204;27;8869;-65
2022/01/23 10:07:30;;;;;;;;;9.60;7.60;;;;;6.72;88.14;101834.25;5132217;27;8838;-63
2022/01/23 10:10:09;;;;;;;;;13.20;10.20;;;;;6.75;87.85;101844.75;5116257;27;8836;-61
2022/01/23 10:12:36;;;;;;;;;8.20;8.20;;;;;6.75;87.95;101840.31;5111729;28;9561;-63
2022/01/23 10:15:04;;;;;;;;;9.20;7.40;;;;;6.77;87.77;101842.91;5109766;28;8954;-63
2022/01/23 10:17:32;;;;;;;;;13.80;11.80;;;;;6.78;87.55;101840.22;5110956;28;9683;-62
2022/01/23 10:20:00;;;;;;;;;17.00;16.40;;;;;6.79;87.82;101843.72;5109916;28;8913;-61
2022/01/23 10:22:31;;;;;;;;;10.00;9.00;;;;;6.81;87.73;101841.91;5109342;28;8856;-63
2022/01/23 10:24:59;;;;;;;;;22.00;21.60;;;;;6.81;88.00;101844.56;5109424;28;8851;-63
2022/01/23 10:27:27;;;;;;;;;16.20;15.00;;;;;6.84;87.90;101842.66;5111182;28;8929;-63
2022/01/23 10:29:54;;;;;;;;;13.80;13.40;;;;;6.87;87.84;101831.09;5108814;28;8886;-63
2022/01/23 10:32:23;;;;;;;;;9.80;9.60;;;;;6.90;87.88;101828.34;5107499;28;9741;-63
2022/01/23 10:34:51;;;;;;;;;14.00;13.00;;;;;6.95;87.81;101829.03;5110213;28;8871;-62
2022/01/23 10:37:19;;;;;;;;;9.20;9.20;;;;;7.00;87.20;101829.75;5109558;28;8828;-63
2022/01/23 10:39:47;;;;;;;;;10.60;8.80;;;;;7.04;87.48;101826.09;5120673;27;8842;-63
2022/01/23 10:42:23;;;;;;;;;12.60;11.60;;;;;7.09;87.58;101832.06;5129311;27;8968;-64
2022/01/23 10:47:48;;;;;;;;;14.20;13.80;;;;;7.17;87.77;101822.94;5128596;27;8854;-63
2022/01/23 10:50:15;;;;;;;;;15.20;13.80;;;;;7.20;87.36;101821.97;5128363;27;8833;-63
2022/01/23 10:52:50;;;;;;;;;16.80;14.80;;;;;7.24;87.14;101815.63;5129088;27;8842;-62
2022/01/23 10:55:18;;;;;;;;;9.80;9.40;;;;;7.29;87.35;101817.19;5129225;27;8837;-63
2022/01/23 10:57:46;;;;;;;;;8.00;8.00;;;;;7.34;87.03;101811.75;5127891;27;8946;-66
2022/01/23 11:00:13;;;;;;;;;13.40;13.40;;;;;7.36;87.37;101807.25;5129210;27;8873;-63
2022/01/23 11:02:41;;;;;;;;;13.40;12.60;;;;;7.39;87.02;101818.59;5128852;27;8863;-63
2022/01/23 11:05:10;;;;;;;;;10.20;9.20;;;;;7.38;86.77;101805.41;5123322;27;8844;-62
2022/01/23 11:07:38;;;;;;;;;6.50;4.50;;;;;7.40;86.87;101806.19;5110055;28;8990;-60
2022/01/23 11:10:05;;;;;;;;;14.60;13.40;;;;;7.42;86.89;101804.38;5110678;28;8980;-63
2022/01/23 11:17:20;;;;;;;;;11.20;6.80;;;;;7.45;87.13;101799.84;5109272;28;8962;-63
2022/01/23 11:18:18;;;;;;;;;8.60;5.60;;;;;7.48;86.74;101807.66;5109214;28;8909;-62
2022/01/23 11:20:46;;;;;;;;;8.00;7.25;;;;;7.46;86.73;101809.50;5107758;28;8862;-63
2022/01/23 11:23:14;;;;;;;;;6.60;6.00;;;;;7.45;86.84;101805.13;5107557;28;8852;-61
2022/01/23 11:25:42;;;;;;;;;13.40;10.40;;;;;7.44;87.02;101799.88;5109133;28;8863;-61
2022/01/23 11:28:10;;;;;;;;;8.25;7.75;;;;;7.45;87.19;101801.59;5126370;27;8837;-63
2022/01/23 11:30:39;;;;;;;;;11.20;10.40;;;;;7.46;86.99;101795.38;5128643;27;9975;-62
2022/01/23 11:33:06;;;;;;;;;3.75;3.00;;;;;7.47;86.92;101805.06;5129149;27;8829;-62
2022/01/23 11:35:35;;;;;;;;;9.00;7.40;;;;;7.48;86.91;101797.06;5128432;27;8905;-62
2022/01/23 11:38:05;;;;;;;;;9.00;7.00;;;;;7.51;87.33;101790.78;5131014;27;8837;-61
2022/01/23 11:40:41;;;;;;;;;7.50;6.50;;;;;7.51;87.07;101783.69;5128595;27;8980;-63
2022/01/23 11:54:10;;;;;;;;;11.00;10.00;;;;;7.60;86.95;101783.34;5126300;27;8871;-62
2022/01/23 11:56:40;;;;;;;;;13.00;9.60;;;;;7.61;86.67;101782.44;5122132;27;8856;-62
2022/01/23 11:59:07;;;;;;;;;11.00;9.25;;;;;7.62;86.77;101776.19;5107557;28;8880;-61
2022/01/23 12:01:35;;;;;;;;;11.20;7.40;;;;;7.65;86.92;101784.03;5105144;28;8940;-62
2022/01/23 12:04:03;;;;;;;;;10.40;10.40;;;;;7.65;87.22;101783.19;5107241;28;8832;-60
2022/01/23 12:06:31;;;;;;;;;10.40;9.60;;;;;7.64;86.63;101787.59;5107115;28;8851;-62
2022/01/23 12:08:59;;;;;;;;;9.00;7.00;;;;;7.59;86.52;101784.25;5106218;28;8836;-62
2022/01/23 12:16:22;;;;;;;;;12.00;9.80;;;;;7.57;86.86;101779.97;5105616;28;8871;-62
2022/01/23 12:17:06;;;;;;;;;8.20;6.40;;;;;7.55;86.86;101779.13;5106712;28;9538;-61
2022/01/23 12:19:34;;;;;;;;;10.00;9.60;;;;;7.53;86.86;101778.31;5106285;28;8855;-62
2022/01/23 12:22:02;;;;;;;;;9.00;7.00;;;;;7.52;86.93;101776.59;5105899;28;8839;-62
2022/01/23 12:24:30;;;;;;;;;12.00;8.60;;;;;7.52;86.94;101777.50;5104674;28;8855;-63
2022/01/23 12:26:57;;;;;;;;;7.50;7.00;;;;;7.52;86.97;101772.19;5114734;27;8972;-62
2022/01/23 12:29:25;;;;;;;;;13.00;11.80;;;;;7.53;86.73;101780.97;5127179;27;8853;-62
2022/01/23 12:32:01;;;;;;;;;10.00;9.00;;;;;7.53;86.98;101767.72;5126789;27;8842;-62
2022/01/23 12:34:28;;;;;;;;;11.40;10.40;;;;;7.56;87.05;101767.59;5126674;27;8844;-62
2022/01/23 12:36:57;;;;;;;;;10.40;9.00;;;;;7.55;86.88;101766.75;5127139;27;8834;-62
2022/01/23 12:39:24;;;;;;;;;13.40;10.80;;;;;7.53;86.93;101768.59;5127965;27;8853;-62
2022/01/23 12:41:52;;;;;;;;;15.40;12.40;;;;;7.52;86.97;101761.59;5126633;27;8875;-62
2022/01/23 12:44:20;;;;;;;;;9.50;9.25;;;;;7.50;86.88;101766.06;5124126;27;8868;-64
2022/01/23 12:46:47;;;;;;;;;9.00;8.75;;;;;7.49;86.72;101768.78;5124360;27;8845;-62
2022/01/23 12:49:15;;;;;;;;;6.00;5.00;;;;;7.49;87.23;101766.13;5125767;27;8838;-62
2022/01/23 12:51:43;;;;;;;;;9.00;8.20;;;;;7.47;86.84;101765.31;5126234;27;8996;-62
2022/01/23 12:54:11;;;;;;;;;6.25;6.00;;;;;7.42;87.04;101769.94;5126717;27;8853;-62
2022/01/23 12:56:42;;;;;;;;;10.80;10.80;;;;;7.40;87.14;101769.09;5121218;28;9686;-62
2022/01/23 12:59:12;;;;;;;;;6.20;5.20;;;;;7.40;87.01;101766.44;5105740;28;8844;-67
2022/01/23 13:01:40;;;;;;;;;7.80;6.20;;;;;7.39;86.99;101768.25;5105797;28;8859;-65
2022/01/23 13:04:08;;;;;;;;;8.75;8.00;;;;;7.41;86.92;101762.88;5107239;28;9540;-62
2022/01/23 13:06:37;;;;;;;;;11.00;9.50;;;;;7.40;87.07;101763.81;5106487;28;8848;-62
2022/01/23 13:09:04;;;;;;;;;9.00;7.00;;;;;7.40;87.18;101761.16;5105634;28;8836;-62
2022/01/23 13:11:53;;;;;;;;;10.00;9.40;;;;;7.39;86.66;101764.72;5105709;28;8848;-62
2022/01/23 13:14:27;;;;;;;;;7.00;6.60;;;;;7.36;87.28;101759.56;5106074;28;8844;-60
2022/01/23 13:26:21;;;;;;;;;35.40;31.80;;;;;7.35;87.04;101763.13;5100860;28;8902;-62
2022/01/23 13:30:51;;;;;;;;;5.00;4.00;;;;;7.37;87.52;101758.63;5091400;27;8930;-62
2022/01/23 13:33:21;;;;;;;;;8.60;8.60;;;;;7.36;86.94;101764.84;5124372;27;10015;-62
2022/01/23 13:35:51;;;;;;;;;10.00;9.00;;;;;7.37;86.92;101761.28;5123888;27;8857;-65
2022/01/23 13:38:19;;;;;;;;;11.80;10.00;;;;;7.37;87.19;101766.59;5125039;27;8845;-62
2022/01/23 13:40:57;;;;;;;;;10.00;9.20;;;;;7.36;87.51;101765.69;5126860;27;8873;-61
2022/01/23 13:51:59;;;;;;;;;7.60;7.60;;;;;7.33;86.93;101754.34;5126405;27;8846;-62
2022/01/23 13:57:49;;;;;;;;;9.40;6.80;;;;;7.26;86.97;101753.72;5113197;28;8851;-62
2022/01/23 14:00:25;;;;;;;;;8.60;8.60;;;;;7.26;87.12;101758.16;5105781;28;8852;-63
2022/01/23 14:02:53;;;;;;;;;9.80;9.80;;;;;7.24;87.21;101755.56;5105660;28;8856;-63
2022/01/23 14:05:20;;;;;;;;;9.20;6.60;;;;;7.23;87.16;101756.50;5108331;28;8836;-62
2022/01/23 14:07:48;;;;;;;;;9.60;9.00;;;;;7.22;87.31;101754.78;5108881;28;8883;-63
2022/01/23 14:10:16;;;;;;;;;9.00;8.60;;;;;7.21;87.39;101760.13;5107885;28;8855;-63
2022/01/23 14:12:44;;;;;;;;;7.80;7.00;;;;;7.19;87.44;101751.38;5107479;28;8874;-62
2022/01/23 14:15:19;;;;;;;;;8.20;8.20;;;;;7.18;87.14;101753.16;5107106;28;8886;-62
2022/01/23 14:17:46;;;;;;;;;9.00;7.00;;;;;7.17;87.41;101758.50;5109351;28;9002;-62
2022/01/23 14:20:15;;;;;;;;;6.20;5.60;;;;;7.15;86.94;101749.75;5124252;27;8853;-61
2022/01/23 14:22:43;;;;;;;;;12.80;12.80;;;;;7.12;87.19;101758.66;5126154;27;8894;-60
2022/01/23 14:25:13;;;;;;;;;7.20;6.00;;;;;7.11;87.45;101756.94;5127770;27;9216;-62